Time;durP1;ratioP1;P1;durP2;ratioP2;P2;SDS_P1;SDS_P2;PMS_P1;PMS_P2;Temp;Humidity;BMP_temperature;BMP_pressure;BME280_temperature;BME280_humidity;BME280_pressure;Samples;Min_cycle;Max_cycle;Signal;HPM_P1;HPM_P2
2021/01/16 00:00:35;;;;;;;6.60;3.55;;;;;;;-2.12;66.00;101356.78;5022451;28;20496;-75
2021/01/16 00:03:08;;;;;;;9.43;4.20;;;;;;;-2.29;66.80;101357.94;5072033;28;20473;-75
2021/01/16 00:05:34;;;;;;;8.63;4.40;;;;;;;-2.25;67.84;101358.59;5057356;28;20123;-69
2021/01/16 00:08:10;;;;;;;5.97;3.58;;;;;;;-2.21;66.90;101355.59;5060347;28;20048;-76
2021/01/16 00:10:43;;;;;;;7.45;3.70;;;;;;;-2.37;67.81;101353.13;5071449;28;20044;-76
2021/01/16 00:13:18;;;;;;;7.68;3.80;;;;;;;-2.32;67.35;101358.16;5073987;28;20060;-76
2021/01/16 00:15:44;;;;;;;7.80;3.72;;;;;;;-2.26;66.95;101356.88;5066789;28;20070;-76
2021/01/16 00:18:13;;;;;;;7.10;4.13;;;;;;;-2.23;67.04;101364.69;5087718;28;20092;-77
2021/01/16 00:20:46;;;;;;;7.03;4.00;;;;;;;-2.16;66.08;101358.81;5051542;28;20046;-76
2021/01/16 00:23:12;;;;;;;8.55;3.83;;;;;;;-2.22;66.93;101353.91;5033894;28;20053;-76
2021/01/16 00:25:41;;;;;;;6.88;3.80;;;;;;;-2.49;68.05;101361.13;5051279;28;20045;-76
2021/01/16 00:28:14;;;;;;;7.47;3.85;;;;;;;-2.37;67.87;101365.63;5051266;28;20049;-76
2021/01/16 00:30:40;;;;;;;10.10;4.65;;;;;;;-2.21;67.95;101355.59;5043240;28;20045;-76
2021/01/16 00:33:28;;;;;;;7.82;4.30;;;;;;;-2.41;67.99;101364.13;5045265;28;20069;-76
2021/01/16 00:35:55;;;;;;;7.63;4.05;;;;;;;-2.24;67.12;101365.63;5034341;28;20053;-76
2021/01/16 00:38:26;;;;;;;8.98;4.70;;;;;;;-2.39;67.16;101362.19;5049774;28;20499;-76
2021/01/16 00:40:56;;;;;;;7.68;4.00;;;;;;;-2.38;66.98;101371.91;5065338;28;20055;-76
2021/01/16 00:43:22;;;;;;;6.75;3.67;;;;;;;-2.49;66.58;101369.13;5040054;28;20055;-77
2021/01/16 00:45:50;;;;;;;6.05;3.53;;;;;;;-2.55;66.39;101364.22;5048352;28;20109;-75
2021/01/16 00:48:19;;;;;;;6.35;3.47;;;;;;;-2.60;65.32;101374.34;5037741;28;20120;-76
2021/01/16 00:50:48;;;;;;;6.78;3.28;;;;;;;-2.60;64.15;101367.19;5042897;28;20059;-76
2021/01/16 00:53:17;;;;;;;5.70;2.97;;;;;;;-2.67;64.14;101362.38;5036875;28;20053;-74
2021/01/16 00:56:04;;;;;;;4.90;2.85;;;;;;;-2.57;64.35;101372.31;5045628;28;20048;-76
2021/01/16 00:58:38;;;;;;;5.35;2.85;;;;;;;-2.48;63.73;101376.19;5054933;28;20044;-76
2021/01/16 01:01:20;;;;;;;3.75;2.10;;;;;;;-2.63;64.52;101371.88;5039835;28;20048;-77
2021/01/16 01:03:47;;;;;;;4.95;2.92;;;;;;;-2.44;63.55;101375.03;5070744;28;20384;-77
2021/01/16 01:06:13;;;;;;;6.05;2.90;;;;;;;-2.42;63.66;101365.94;5065149;28;20106;-75
2021/01/16 01:08:39;;;;;;;5.35;3.00;;;;;;;-2.42;63.32;101371.25;5068645;28;20047;-75
2021/01/16 01:11:06;;;;;;;5.65;3.53;;;;;;;-2.56;63.73;101366.03;5056744;28;20052;-77
2021/01/16 01:13:32;;;;;;;4.75;2.78;;;;;;;-2.60;64.10;101379.69;5071798;28;20437;-77
2021/01/16 01:15:59;;;;;;;6.47;3.13;;;;;;;-2.77;64.17;101376.31;5087811;28;20053;-77
2021/01/16 01:18:25;;;;;;;6.05;3.38;;;;;;;-2.35;62.90;101377.03;5070337;28;20089;-77
2021/01/16 01:20:51;;;;;;;4.75;2.45;;;;;;;-2.55;62.79;101378.41;5072793;28;20052;-76
2021/01/16 01:23:19;;;;;;;6.68;3.45;;;;;;;-2.72;62.96;101376.84;5070315;28;20059;-76
2021/01/16 01:25:45;;;;;;;6.03;2.67;;;;;;;-2.78;63.68;101379.97;5068844;28;20063;-77
2021/01/16 01:28:11;;;;;;;5.80;3.00;;;;;;;-2.72;63.27;101382.19;5053842;28;20463;-75
2021/01/16 01:30:38;;;;;;;4.53;2.60;;;;;;;-2.45;62.32;101384.00;5069971;28;20083;-75
2021/01/16 01:33:13;;;;;;;7.90;3.30;;;;;;;-2.74;62.97;101385.91;5037126;28;20053;-73
2021/01/16 01:35:39;;;;;;;4.97;2.55;;;;;;;-2.73;62.41;101388.47;5091997;22;20409;-71
2021/01/16 01:38:05;;;;;;;6.28;2.78;;;;;;;-2.69;62.24;101389.13;5086273;28;20052;-71
2021/01/16 01:40:32;;;;;;;5.22;2.70;;;;;;;-2.75;62.70;101385.06;5090416;28;20093;-71
2021/01/16 01:42:58;;;;;;;5.25;3.05;;;;;;;-2.73;62.96;101385.81;5073641;28;20413;-71
2021/01/16 01:45:25;;;;;;;6.10;2.63;;;;;;;-2.46;62.01;101384.94;5073461;28;20142;-71
2021/01/16 01:47:53;;;;;;;4.63;2.58;;;;;;;-2.77;63.28;101389.63;5056905;28;20056;-72
2021/01/16 01:50:21;;;;;;;5.97;2.63;;;;;;;-2.62;63.39;101386.91;5039705;28;20101;-71
2021/01/16 01:52:50;;;;;;;5.07;2.67;;;;;;;-2.29;62.59;101376.63;5073525;28;20593;-71
2021/01/16 01:55:17;;;;;;;6.60;3.00;;;;;;;-2.25;62.93;101385.28;5036930;28;20066;-71
2021/01/16 01:57:50;;;;;;;4.28;2.67;;;;;;;-2.38;63.44;101385.25;5089938;28;20042;-71
2021/01/16 02:00:16;;;;;;;6.15;3.13;;;;;;;-2.53;64.55;101383.66;5090171;28;20052;-71
2021/01/16 02:02:43;;;;;;;5.65;3.13;;;;;;;-2.47;63.25;101380.56;5066882;28;20048;-72
2021/01/16 02:05:12;;;;;;;6.13;3.22;;;;;;;-2.66;64.77;101385.41;5065283;28;20071;-71
2021/01/16 02:07:44;;;;;;;5.38;3.08;;;;;;;-2.29;63.84;101383.78;5075647;28;20417;-71
2021/01/16 02:10:11;;;;;;;5.50;3.20;;;;;;;-2.53;64.52;101386.31;5090025;28;20130;-71
2021/01/16 02:12:40;;;;;;;5.50;2.92;;;;;;;-2.52;64.51;101377.34;5040092;28;20143;-72
2021/01/16 02:15:30;;;;;;;4.80;2.92;;;;;;;-2.44;64.51;101380.38;5090010;28;20098;-71
2021/01/16 02:18:31;;;;;;;5.35;3.10;;;;;;;-2.37;64.51;101379.81;5089677;28;20064;-71
2021/01/16 02:21:01;;;;;;;6.68;3.45;;;;;;;-2.08;64.27;101377.81;5087577;28;20143;-71
2021/01/16 02:23:27;;;;;;;6.75;3.50;;;;;;;-2.36;65.19;101378.00;5072476;28;20048;-71
2021/01/16 02:26:16;;;;;;;5.75;3.30;;;;;;;-2.09;64.16;101375.28;5085364;28;20048;-71
2021/01/16 02:28:52;;;;;;;8.02;3.63;;;;;;;-2.37;65.89;101376.28;5081735;28;20040;-72
2021/01/16 02:31:19;;;;;;;6.55;3.55;;;;;;;-2.05;64.56;101369.59;5072804;28;20528;-72
2021/01/16 02:33:47;;;;;;;12.05;4.25;;;;;;;-2.30;65.97;101385.59;5057333;28;20055;-71
2021/01/16 02:36:20;;;;;;;6.82;3.45;;;;;;;-2.22;66.25;101375.25;5069883;28;20552;-71
2021/01/16 02:38:56;;;;;;;7.70;3.72;;;;;;;-2.28;66.50;101375.66;5089039;28;20044;-71
2021/01/16 02:41:44;;;;;;;7.22;3.90;;;;;;;-2.39;67.71;101384.41;5082303;28;20044;-72
2021/01/16 02:44:19;;;;;;;6.03;3.60;;;;;;;-2.34;67.60;101381.41;5098671;28;20089;-71
2021/01/16 02:46:48;;;;;;;6.53;3.53;;;;;;;-2.59;68.50;101386.72;5056984;28;20044;-72
2021/01/16 02:49:34;;;;;;;5.93;3.20;;;;;;;-2.70;69.41;101385.63;5048408;28;20056;-72
2021/01/16 02:52:08;;;;;;;7.13;3.60;;;;;;;-2.70;69.46;101380.28;5063179;28;20059;-71
2021/01/16 02:54:37;;;;;;;6.30;3.40;;;;;;;-2.50;69.01;101378.09;5043370;28;20048;-71
2021/01/16 02:57:05;;;;;;;7.63;3.72;;;;;;;-2.70;69.64;101374.94;5049457;28;20069;-71
2021/01/16 02:59:45;;;;;;;8.95;3.58;;;;;;;-2.49;69.22;101369.13;5056582;28;20079;-71
2021/01/16 03:02:13;;;;;;;6.53;3.55;;;;;;;-2.42;69.34;101365.06;5045793;28;20055;-71
2021/01/16 03:04:40;;;;;;;6.32;3.80;;;;;;;-2.13;68.54;101353.28;5063300;28;20103;-71
2021/01/16 03:07:09;;;;;;;7.72;3.92;;;;;;;-2.36;68.65;101352.16;5071963;28;20068;-71
2021/01/16 03:09:36;;;;;;;7.63;3.90;;;;;;;-2.28;68.09;101351.66;5058008;28;20048;-71
2021/01/16 03:12:10;;;;;;;7.28;3.45;;;;;;;-2.47;69.39;101345.88;5060300;28;20088;-72
2021/01/16 03:14:46;;;;;;;5.70;3.38;;;;;;;-2.31;69.24;101349.19;5091834;28;20044;-71
2021/01/16 03:17:14;;;;;;;6.53;3.50;;;;;;;-2.26;68.35;101336.38;5075585;28;20101;-71
2021/01/16 03:19:46;;;;;;;7.35;3.53;;;;;;;-2.10;67.83;101337.03;5059306;28;20089;-71
2021/01/16 03:22:23;;;;;;;7.80;4.07;;;;;;;-2.19;67.61;101331.47;5075553;28;20036;-71
2021/01/16 03:24:51;;;;;;;7.18;3.42;;;;;;;-2.10;67.51;101326.34;5091167;28;20052;-71
2021/01/16 03:27:18;;;;;;;6.75;3.50;;;;;;;-2.04;67.19;101330.38;5075694;28;20074;-72
2021/01/16 03:29:45;;;;;;;6.55;3.45;;;;;;;-2.34;68.12;101327.19;5075612;28;20118;-72
2021/01/16 03:32:12;;;;;;;9.13;4.30;;;;;;;-2.10;67.32;101328.16;5086174;28;20056;-72
2021/01/16 03:34:40;;;;;;;6.03;3.30;;;;;;;-2.03;67.05;101332.94;5075564;28;20516;-71
2021/01/16 03:37:07;;;;;;;5.95;3.38;;;;;;;-2.19;67.77;101329.66;5050615;28;20466;-71
2021/01/16 03:39:34;;;;;;;6.75;3.63;;;;;;;-2.14;67.25;101329.34;5082125;28;20498;-72
2021/01/16 03:42:01;;;;;;;5.88;3.50;;;;;;;-2.38;67.44;101324.72;5075945;28;20048;-71
2021/01/16 03:44:27;;;;;;;7.35;3.55;;;;;;;-2.19;67.22;101324.31;5092645;28;20506;-71
2021/01/16 03:46:53;;;;;;;8.77;4.03;;;;;;;-2.15;67.06;101327.63;5092517;28;20082;-71
2021/01/16 03:49:20;;;;;;;6.93;3.85;;;;;;;-2.13;66.68;101326.56;5051764;28;20534;-72
2021/01/16 03:51:46;;;;;;;7.43;3.63;;;;;;;-2.11;66.44;101330.00;5042628;28;20051;-71
2021/01/16 03:54:13;;;;;;;9.18;3.92;;;;;;;-2.25;66.93;101327.41;5071857;28;20132;-71
2021/01/16 03:56:40;;;;;;;9.80;3.83;;;;;;;-2.22;67.22;101332.53;5066500;28;20131;-71
2021/01/16 03:59:07;;;;;;;7.90;4.15;;;;;;;-2.09;66.72;101327.22;5069484;28;20043;-72
2021/01/16 04:01:34;;;;;;;6.53;3.72;;;;;;;-2.02;66.15;101315.97;5080053;28;20454;-71
2021/01/16 04:04:01;;;;;;;7.32;4.03;;;;;;;-2.08;65.96;101321.72;5075464;28;20052;-71
2021/01/16 04:06:28;;;;;;;9.00;3.88;;;;;;;-2.09;66.37;101314.72;5057719;28;20071;-72
2021/01/16 04:08:54;;;;;;;8.18;3.75;;;;;;;-2.24;66.88;101321.13;5075622;28;20048;-71
2021/01/16 04:11:20;;;;;;;5.57;3.55;;;;;;;-2.04;66.30;101323.22;5075150;28;20566;-71
2021/01/16 04:13:47;;;;;;;5.78;3.50;;;;;;;-2.08;66.12;101329.75;5074321;28;20101;-71
2021/01/16 04:16:13;;;;;;;7.00;3.67;;;;;;;-2.08;66.54;101327.06;5075038;28;20048;-71
2021/01/16 04:18:40;;;;;;;7.80;3.97;;;;;;;-2.26;66.46;101327.53;5091931;28;20059;-71
2021/01/16 04:21:06;;;;;;;7.45;3.78;;;;;;;-2.40;67.37;101331.97;5058689;28;20055;-71
2021/01/16 04:23:33;;;;;;;7.45;3.50;;;;;;;-2.13;66.74;101318.56;5090457;28;20105;-71
2021/01/16 04:25:59;;;;;;;6.38;3.28;;;;;;;-2.13;66.52;101323.03;5067956;28;20413;-71
2021/01/16 04:28:26;;;;;;;9.40;4.25;;;;;;;-2.42;67.32;101325.03;5091592;28;20052;-71
2021/01/16 04:30:52;;;;;;;8.00;3.60;;;;;;;-2.34;67.07;101320.03;5058280;28;20130;-71
2021/01/16 04:33:19;;;;;;;7.40;3.92;;;;;;;-2.26;67.12;101325.69;5091487;28;20452;-71
2021/01/16 04:35:45;;;;;;;8.32;3.47;;;;;;;-2.24;65.93;101323.78;5089925;28;20521;-71
2021/01/16 04:38:12;;;;;;;8.55;3.60;;;;;;;-2.48;67.53;101322.81;5061856;28;20140;-71
2021/01/16 04:40:38;;;;;;;6.35;3.50;;;;;;;-2.20;66.84;101319.94;5083771;28;20049;-72
2021/01/16 04:43:05;;;;;;;9.23;3.80;;;;;;;-2.36;66.92;101325.47;5068796;28;20052;-71
2021/01/16 04:45:32;;;;;;;6.30;3.42;;;;;;;-2.44;67.44;101324.31;5074529;28;20131;-72
2021/01/16 04:48:01;;;;;;;7.63;3.78;;;;;;;-2.06;66.33;101317.13;5091221;28;20074;-72
2021/01/16 04:50:29;;;;;;;13.90;4.77;;;;;;;-2.30;66.99;101310.00;5091521;28;20063;-71
2021/01/16 04:53:01;;;;;;;6.15;3.40;;;;;;;-2.22;66.39;101315.66;5091353;28;20301;-71
2021/01/16 04:55:30;;;;;;;5.90;3.30;;;;;;;-2.11;66.21;101313.97;5087954;28;20416;-71
2021/01/16 04:58:07;;;;;;;7.60;3.35;;;;;;;-2.13;66.21;101315.88;5074517;28;20040;-72
2021/01/16 05:00:35;;;;;;;7.47;3.55;;;;;;;-2.38;67.14;101316.72;5075176;28;20048;-71
2021/01/16 05:03:12;;;;;;;6.18;3.50;;;;;;;-2.28;66.85;101314.28;5074835;28;20048;-72
2021/01/16 05:05:41;;;;;;;7.28;4.13;;;;;;;-2.19;66.60;101312.78;5091579;28;20080;-72
2021/01/16 05:08:08;;;;;;;8.65;4.15;;;;;;;-2.10;66.30;101306.81;5060935;28;20097;-71
2021/01/16 05:10:42;;;;;;;8.15;3.70;;;;;;;-2.08;66.09;101308.38;5091008;28;20517;-71
2021/01/16 05:13:13;;;;;;;6.10;3.50;;;;;;;-1.97;65.86;101301.44;5091028;28;20052;-71
2021/01/16 05:15:42;;;;;;;9.68;3.95;;;;;;;-2.10;66.14;101307.66;5074388;28;20044;-72
2021/01/16 05:18:13;;;;;;;7.30;3.67;;;;;;;-2.16;66.66;101313.44;5073986;28;20575;-72
2021/01/16 05:20:43;;;;;;;8.38;3.53;;;;;;;-2.14;66.66;101310.66;5074276;28;20075;-71
2021/01/16 05:23:14;;;;;;;6.78;3.67;;;;;;;-2.30;66.95;101312.66;5073846;28;20097;-71
2021/01/16 05:25:44;;;;;;;7.22;3.60;;;;;;;-2.25;67.14;101311.41;5041363;28;20052;-71
2021/01/16 05:28:12;;;;;;;5.97;3.10;;;;;;;-2.16;66.51;101321.44;5073876;28;20048;-71
2021/01/16 05:30:53;;;;;;;6.88;3.35;;;;;;;-2.17;66.59;101314.38;5090723;28;20119;-71
2021/01/16 05:33:22;;;;;;;7.40;3.35;;;;;;;-2.19;66.67;101316.31;5073827;28;20035;-72
2021/01/16 05:35:50;;;;;;;7.88;4.03;;;;;;;-2.32;67.42;101309.25;5054554;28;20045;-71
2021/01/16 05:38:24;;;;;;;9.90;3.95;;;;;;;-2.35;67.82;101310.31;5053544;28;20040;-71
2021/01/16 05:40:53;;;;;;;8.07;3.97;;;;;;;-2.14;66.91;101303.50;5079545;28;20135;-71
2021/01/16 05:43:19;;;;;;;6.20;3.63;;;;;;;-2.18;66.53;101306.50;5073611;28;20112;-71
2021/01/16 05:45:48;;;;;;;8.00;4.32;;;;;;;-2.11;66.94;101303.28;5090322;28;20044;-71
2021/01/16 05:48:16;;;;;;;7.65;3.78;;;;;;;-2.17;66.63;101287.69;5056777;28;20047;-71
2021/01/16 05:50:42;;;;;;;7.23;4.17;;;;;;;-2.61;67.91;101301.44;5073502;28;20136;-71
2021/01/16 05:53:09;;;;;;;8.70;4.47;;;;;;;-2.31;67.54;101297.63;5074188;28;20048;-71
2021/01/16 05:55:35;;;;;;;8.52;3.80;;;;;;;-2.47;66.79;101295.19;5073913;28;20063;-71
2021/01/16 05:58:05;;;;;;;6.13;3.47;;;;;;;-2.38;68.03;101297.19;5076516;28;20052;-71
2021/01/16 06:00:47;;;;;;;6.90;4.10;;;;;;;-2.18;66.87;101302.00;5051369;28;20071;-72
2021/01/16 06:03:15;;;;;;;7.03;4.18;;;;;;;-2.34;67.06;101301.34;5090291;28;20067;-71
2021/01/16 06:05:52;;;;;;;7.78;4.07;;;;;;;-2.32;67.27;101303.91;5055552;28;20055;-71
2021/01/16 06:08:19;;;;;;;7.85;4.25;;;;;;;-2.26;66.77;101301.69;5073204;28;20044;-71
2021/01/16 06:10:56;;;;;;;9.50;3.92;;;;;;;-2.37;67.24;101313.09;5073245;28;20058;-71
2021/01/16 06:13:23;;;;;;;9.23;4.15;;;;;;;-2.51;67.58;101304.34;5056657;28;20051;-71
2021/01/16 06:15:54;;;;;;;6.75;4.00;;;;;;;-2.32;67.80;101304.78;5089746;28;20109;-72
2021/01/16 06:18:23;;;;;;;6.95;4.28;;;;;;;-2.13;67.26;101307.03;5089697;28;20115;-72
2021/01/16 06:20:52;;;;;;;8.15;4.28;;;;;;;-2.12;66.30;101306.06;5073332;28;20044;-71
2021/01/16 06:23:20;;;;;;;6.85;3.90;;;;;;;-2.09;66.26;101298.69;5056463;28;20051;-71
2021/01/16 06:25:50;;;;;;;8.02;4.00;;;;;;;-2.10;66.68;101305.00;5053005;28;20049;-71
2021/01/16 06:28:18;;;;;;;8.15;4.57;;;;;;;-2.23;67.04;101306.81;5052642;28;20401;-71
2021/01/16 06:30:45;;;;;;;9.43;4.40;;;;;;;-2.14;66.75;101305.31;5046886;28;20055;-71
2021/01/16 06:33:27;;;;;;;8.45;4.40;;;;;;;-2.30;67.14;101302.00;5073153;28;20104;-71
2021/01/16 06:36:02;;;;;;;7.70;3.83;;;;;;;-2.23;67.36;101292.59;5069550;28;20477;-72
2021/01/16 06:38:33;;;;;;;8.82;5.07;;;;;;;-2.29;67.29;101293.03;5045772;28;20048;-71
2021/01/16 06:41:12;;;;;;;7.88;4.13;;;;;;;-2.25;67.04;101292.72;5056509;28;20059;-71
2021/01/16 06:43:40;;;;;;;8.15;4.43;;;;;;;-2.22;67.19;101288.97;5089727;28;20044;-72
2021/01/16 06:46:09;;;;;;;8.27;5.07;;;;;;;-2.33;67.44;101296.88;5089842;28;20051;-71
2021/01/16 06:48:40;;;;;;;8.70;4.78;;;;;;;-2.71;68.64;101298.53;5056537;28;20157;-72
2021/01/16 06:51:12;;;;;;;7.50;4.50;;;;;;;-2.41;68.26;101295.56;5056480;28;20127;-71
2021/01/16 06:53:38;;;;;;;8.75;4.22;;;;;;;-2.42;67.82;101298.34;5087530;28;20060;-71
2021/01/16 06:56:10;;;;;;;8.73;4.47;;;;;;;-2.28;67.38;101300.94;5088976;28;20048;-72
2021/01/16 06:58:42;;;;;;;9.30;5.03;;;;;;;-2.33;67.55;101297.72;5058079;28;20040;-74
2021/01/16 07:01:15;;;;;;;8.90;5.18;;;;;;;-2.23;67.47;101298.78;5044109;28;20178;-73
2021/01/16 07:03:45;;;;;;;12.82;5.78;;;;;;;-2.46;68.83;101312.91;5056955;28;20101;-74
2021/01/16 07:06:12;;;;;;;8.20;4.67;;;;;;;-2.34;68.36;101296.00;5058810;28;20044;-73
2021/01/16 07:08:42;;;;;;;8.43;4.43;;;;;;;-2.26;67.59;101299.00;5056711;28;20799;-73
2021/01/16 07:11:09;;;;;;;9.38;4.88;;;;;;;-2.22;67.73;101303.19;5049775;28;20052;-73
2021/01/16 07:13:37;;;;;;;8.00;4.80;;;;;;;-2.29;68.64;101298.38;5077680;28;20430;-74
2021/01/16 07:16:05;;;;;;;7.68;4.38;;;;;;;-2.09;66.64;101288.00;5059609;28;20052;-73
2021/01/16 07:18:32;;;;;;;7.57;4.70;;;;;;;-2.22;67.93;101289.81;5070976;28;20136;-74
2021/01/16 07:20:59;;;;;;;7.85;4.47;;;;;;;-2.21;66.16;101286.19;5067630;28;20072;-74
2021/01/16 07:23:30;;;;;;;11.63;4.72;;;;;;;-2.19;66.90;101284.28;5088761;28;20505;-73
2021/01/16 07:25:59;;;;;;;7.20;4.40;;;;;;;-2.05;65.96;101284.13;5085435;28;20071;-73
2021/01/16 07:28:26;;;;;;;8.90;4.78;;;;;;;-2.19;65.92;101278.94;5055625;28;20127;-73
2021/01/16 07:30:53;;;;;;;7.55;4.57;;;;;;;-2.23;66.05;101277.44;5055909;28;20052;-73
2021/01/16 07:33:19;;;;;;;9.02;3.78;;;;;;;-2.28;65.53;101282.25;5055761;28;20051;-74
2021/01/16 07:35:50;;;;;;;9.27;3.45;;;;;;;-2.10;64.63;101278.28;5036448;28;20045;-71
2021/01/16 07:38:18;;;;;;;17.15;4.55;;;;;;;-2.16;63.76;101265.38;5078725;28;20044;-71
2021/01/16 07:40:47;;;;;;;7.72;3.40;;;;;;;-2.12;63.41;101263.34;5088682;28;20056;-71
2021/01/16 07:43:28;;;;;;;5.80;3.13;;;;;;;-2.26;64.25;101255.44;5071971;28;20140;-71
2021/01/16 07:45:59;;;;;;;6.38;3.33;;;;;;;-2.04;63.39;101256.47;5089917;28;20068;-71
2021/01/16 07:48:31;;;;;;;7.90;3.50;;;;;;;-1.94;62.13;101251.34;5071784;28;20509;-71
2021/01/16 07:51:00;;;;;;;6.80;3.80;;;;;;;-1.84;62.48;101248.84;5059077;28;20055;-71
2021/01/16 07:53:28;;;;;;;7.13;3.95;;;;;;;-1.67;61.72;101244.94;5075057;28;20582;-71
2021/01/16 07:56:03;;;;;;;13.88;3.85;;;;;;;-1.65;61.36;101243.00;5048419;28;20055;-71
2021/01/16 07:58:32;;;;;;;5.72;3.20;;;;;;;-1.58;60.37;101253.16;5092038;28;20144;-71
2021/01/16 08:01:36;;;;;;;5.25;3.28;;;;;;;-1.99;61.06;101249.94;5093040;28;20533;-71
2021/01/16 08:04:21;;;;;;;5.80;3.53;;;;;;;-1.94;60.98;101246.00;5093025;28;20043;-71
2021/01/16 08:07:04;;;;;;;6.30;3.80;;;;;;;-1.78;60.97;101238.59;5060617;28;20429;-71
2021/01/16 08:09:48;;;;;;;7.78;4.28;;;;;;;-1.77;60.61;101239.44;5075944;28;20055;-71
2021/01/16 08:12:15;;;;;;;10.05;5.45;;;;;;;-1.79;60.21;101246.72;5092067;28;20052;-71
2021/01/16 08:14:42;;;;;;;9.32;4.72;;;;;;;-1.66;59.98;101244.84;5075167;28;20052;-71
2021/01/16 08:17:19;;;;;;;7.22;4.63;;;;;;;-1.78;60.45;101235.91;5041772;28;20417;-71
2021/01/16 08:20:01;;;;;;;7.82;4.53;;;;;;;-1.93;61.20;101233.50;5059094;28;20044;-71
2021/01/16 08:22:42;;;;;;;12.23;4.90;;;;;;;-1.77;60.69;101234.94;5093238;28;20052;-71
2021/01/16 08:25:10;;;;;;;9.50;4.70;;;;;;;-1.79;60.77;101228.88;5079516;28;20048;-71
2021/01/16 08:27:38;;;;;;;7.15;4.40;;;;;;;-1.87;61.25;101235.72;5074915;28;20074;-71
2021/01/16 08:30:10;;;;;;;7.97;4.82;;;;;;;-1.77;61.24;101220.75;5091859;28;20581;-71
2021/01/16 08:32:53;;;;;;;11.70;5.25;;;;;;;-1.75;61.77;101225.00;5075174;28;20535;-71
2021/01/16 08:35:22;;;;;;;16.98;5.93;;;;;;;-1.58;61.08;101215.72;5041725;28;20047;-71
2021/01/16 08:37:49;;;;;;;10.07;5.28;;;;;;;-1.64;61.59;101216.19;5072150;28;20044;-71
2021/01/16 08:40:31;;;;;;;9.75;5.15;;;;;;;-1.66;61.84;101209.25;5072387;28;20700;-71
2021/01/16 08:42:57;;;;;;;9.27;5.53;;;;;;;-1.49;61.96;101208.88;5080081;28;20112;-71
2021/01/16 08:45:24;;;;;;;9.05;5.40;;;;;;;-1.53;62.08;101210.91;5074447;28;20443;-71
2021/01/16 08:47:54;;;;;;;8.45;4.78;;;;;;;-1.42;61.88;101210.97;5074294;28;20506;-71
2021/01/16 08:50:21;;;;;;;10.95;5.50;;;;;;;-1.53;62.13;101208.22;5090787;28;20482;-71
2021/01/16 08:52:48;;;;;;;10.23;5.50;;;;;;;-1.47;62.00;101213.13;5091276;28;20073;-71
2021/01/16 08:55:14;;;;;;;8.40;4.78;;;;;;;-1.26;62.16;101216.00;5043159;28;20075;-71
2021/01/16 08:57:40;;;;;;;9.20;5.53;;;;;;;-1.25;61.96;101211.50;5057340;28;20050;-71
2021/01/16 09:00:23;;;;;;;9.40;6.25;;;;;;;-1.11;62.09;101214.00;5090450;28;20126;-71
2021/01/16 09:03:16;;;;;;;10.23;5.80;;;;;;;-1.27;63.26;101216.97;5090991;28;20063;-71
2021/01/16 09:05:45;;;;;;;11.48;6.35;;;;;;;-1.13;63.13;101213.25;5089054;28;20089;-71
2021/01/16 09:08:19;;;;;;;15.52;6.38;;;;;;;-1.09;62.48;101218.25;5079946;28;20051;-71
2021/01/16 09:10:45;;;;;;;11.70;6.53;;;;;;;-1.06;62.63;101217.19;5073871;28;20069;-71
2021/01/16 09:13:25;;;;;;;13.45;7.03;;;;;;;-1.23;63.07;101228.28;5090769;28;20055;-72
2021/01/16 09:15:53;;;;;;;13.07;7.13;;;;;;;-1.28;64.58;101233.13;5040691;28;20101;-71
2021/01/16 09:18:26;;;;;;;10.52;6.03;;;;;;;-1.07;62.50;101235.06;5090462;28;20048;-71
2021/01/16 09:20:52;;;;;;;12.47;7.43;;;;;;;-0.94;62.14;101232.28;5057336;28;20048;-71
2021/01/16 09:23:19;;;;;;;13.70;6.63;;;;;;;-1.05;62.62;101230.44;5090484;28;20668;-71
2021/01/16 09:25:49;;;;;;;10.00;6.60;;;;;;;-0.97;61.97;101228.97;5076103;28;20052;-71
2021/01/16 09:28:16;;;;;;;13.20;6.72;;;;;;;-1.11;62.51;101222.88;5053633;28;20135;-71
2021/01/16 09:30:44;;;;;;;11.40;6.63;;;;;;;-1.13;63.03;101227.50;5084450;28;20032;-71
2021/01/16 09:33:24;;;;;;;15.82;7.78;;;;;;;-0.92;62.44;101222.31;5073470;28;20071;-70
2021/01/16 09:35:51;;;;;;;12.70;7.28;;;;;;;-0.76;61.94;101224.69;5070929;28;20052;-71
2021/01/16 09:38:20;;;;;;;12.13;6.95;;;;;;;-0.70;61.49;101218.84;5083703;28;20044;-71
2021/01/16 09:40:47;;;;;;;16.38;7.35;;;;;;;-0.52;61.78;101212.06;5073423;28;20086;-71
2021/01/16 09:43:14;;;;;;;19.77;7.70;;;;;;;-0.74;61.55;101218.22;5056685;28;20067;-71
2021/01/16 09:45:53;;;;;;;13.13;6.68;;;;;;;-0.43;61.25;101210.47;5089189;28;20050;-71
2021/01/16 09:48:46;;;;;;;20.17;8.70;;;;;;;-0.44;62.31;101206.94;5083283;28;20036;-71
2021/01/16 09:51:13;;;;;;;12.88;7.32;;;;;;;-0.36;62.31;101198.31;5088171;28;20577;-71
2021/01/16 09:53:40;;;;;;;13.88;8.10;;;;;;;-0.27;62.32;101200.25;5053656;28;20063;-71
2021/01/16 09:56:07;;;;;;;13.50;8.55;;;;;;;-0.18;62.52;101199.53;5066610;28;20105;-71
2021/01/16 09:58:40;;;;;;;13.52;8.00;;;;;;;-0.21;62.58;101199.75;5074472;28;20044;-71
2021/01/16 10:01:14;;;;;;;17.25;7.72;;;;;;;-0.16;62.16;101202.94;5073467;28;20063;-71
2021/01/16 10:03:41;;;;;;;12.90;7.85;;;;;;;-0.26;62.35;101193.91;5089704;28;20612;-71
2021/01/16 10:06:08;;;;;;;12.43;7.53;;;;;;;-0.11;61.44;101197.19;5051580;28;20052;-71
2021/01/16 10:08:38;;;;;;;14.27;7.57;;;;;;;-0.02;60.93;101205.38;5087181;28;20553;-71
2021/01/16 10:11:05;;;;;;;16.25;7.93;;;;;;;-0.15;62.25;101191.25;5072718;28;20080;-71
2021/01/16 10:13:33;;;;;;;13.82;7.20;;;;;;;-0.24;61.51;101191.97;5056151;28;20127;-71
2021/01/16 10:16:02;;;;;;;19.23;8.30;;;;;;;-0.29;62.53;101190.63;5056050;28;20101;-71
2021/01/16 10:18:29;;;;;;;13.00;8.00;;;;;;;-0.06;60.96;101182.47;5056835;28;20409;-71
2021/01/16 10:21:10;;;;;;;12.98;7.40;;;;;;;-0.07;62.03;101180.75;5056043;28;20044;-71
2021/01/16 10:23:41;;;;;;;14.90;8.00;;;;;;;0.09;60.71;101169.63;5069613;28;20044;-71
2021/01/16 10:26:13;;;;;;;15.13;9.07;;;;;;;0.15;60.54;101169.13;5072549;28;20532;-71
2021/01/16 10:28:59;;;;;;;13.43;7.65;;;;;;;0.19;60.00;101173.28;5090609;28;20040;-71
2021/01/16 10:31:26;;;;;;;14.90;8.32;;;;;;;0.21;59.99;101162.44;5072053;28;20044;-71
2021/01/16 10:34:04;;;;;;;15.20;9.45;;;;;;;0.12;60.45;101157.81;5088845;28;20060;-71
2021/01/16 10:36:31;;;;;;;18.48;7.90;;;;;;;0.21;60.47;101152.56;5070401;28;20052;-71
2021/01/16 10:38:57;;;;;;;15.25;8.60;;;;;;;0.35;60.13;101145.22;5068537;28;20071;-71
2021/01/16 10:41:38;;;;;;;15.48;8.13;;;;;;;0.37;60.16;101137.88;5072377;28;20036;-71
2021/01/16 10:44:08;;;;;;;18.27;9.68;;;;;;;0.61;58.72;101128.66;5089058;28;20052;-71
2021/01/16 10:46:51;;;;;;;14.73;9.30;;;;;;;0.71;59.72;101128.69;5056305;28;20387;-72
2021/01/16 10:49:24;;;;;;;20.35;10.95;;;;;;;0.62;59.25;101122.31;5088056;28;20593;-71
2021/01/16 10:52:03;;;;;;;17.55;10.25;;;;;;;0.78;58.43;101120.97;5072346;28;20059;-71
2021/01/16 10:54:30;;;;;;;24.25;11.40;;;;;;;0.88;59.09;101117.38;5087121;28;20074;-71
2021/01/16 10:57:07;;;;;;;17.42;10.10;;;;;;;0.72;59.24;101108.09;5088542;28;20485;-71
2021/01/16 10:59:35;;;;;;;16.60;9.25;;;;;;;0.36;60.04;101106.69;5071925;28;20148;-71
2021/01/16 11:02:10;;;;;;;19.30;10.73;;;;;;;0.00;61.13;101114.97;5055078;28;20117;-71
2021/01/16 11:04:45;;;;;;;21.90;11.07;;;;;;;0.41;60.94;101109.84;5069312;28;20075;-71
2021/01/16 11:07:32;;;;;;;26.48;12.45;;;;;;;0.57;60.73;101100.38;5071829;28;20047;-71
2021/01/16 11:10:05;;;;;;;17.92;9.98;;;;;;;0.47;60.41;101101.28;5054100;28;20044;-71
2021/01/16 11:12:31;;;;;;;28.80;11.68;;;;;;;0.55;59.55;101096.13;5083352;28;20413;-72
2021/01/16 11:15:01;;;;;;;15.98;10.00;;;;;;;0.60;59.67;101094.75;5069741;28;20052;-71
2021/01/16 11:17:52;;;;;;;14.35;8.88;;;;;;;0.48;59.18;101085.06;5089394;28;20135;-71
2021/01/16 11:20:24;;;;;;;15.25;9.88;;;;;;;0.56;59.60;101092.47;5055778;28;20040;-71
2021/01/16 11:23:17;;;;;;;14.20;8.77;;;;;;;0.43;59.33;101083.75;5088724;28;20048;-72
2021/01/16 11:25:45;;;;;;;16.95;9.82;;;;;;;0.43;59.24;101089.97;5073650;28;20100;-71
2021/01/16 11:28:23;;;;;;;17.42;9.95;;;;;;;0.55;59.27;101091.63;5075168;28;20086;-71
2021/01/16 11:30:51;;;;;;;18.33;11.05;;;;;;;0.34;59.01;101082.72;5059721;28;20032;-71
2021/01/16 11:33:27;;;;;;;18.50;8.87;;;;;;;0.38;58.73;101083.28;5092858;28;20052;-71
2021/01/16 11:36:03;;;;;;;15.85;8.98;;;;;;;0.29;58.68;101084.94;5089274;28;20052;-71
2021/01/16 11:38:38;;;;;;;26.92;10.43;;;;;;;0.06;59.69;101083.28;5063197;28;20049;-71
2021/01/16 11:41:05;;;;;;;13.75;8.60;;;;;;;0.30;59.12;101082.13;5065778;28;20047;-71